sensor_id;sensor_type;location;lat;lon;timestamp;pressure;altitude;pressure_sealevel;temperature;humidity
44453;BME280;30155;52.164;21.236;2023-04-16T00:03:16;100413.70;;;8.41;77.86
44453;BME280;30155;52.164;21.236;2023-04-16T00:08:09;100415.71;;;8.38;77.91
44453;BME280;30155;52.164;21.236;2023-04-16T00:13:02;100417.23;;;8.37;77.99
44453;BME280;30155;52.164;21.236;2023-04-16T00:17:55;100413.92;;;8.35;78.12
44453;BME280;30155;52.164;21.236;2023-04-16T00:22:48;100410.45;;;8.34;78.22
44453;BME280;30155;52.164;21.236;2023-04-16T00:27:40;100407.86;;;8.34;78.39
44453;BME280;30155;52.164;21.236;2023-04-16T00:32:33;100413.58;;;8.36;78.43
44453;BME280;30155;52.164;21.236;2023-04-16T00:37:26;100412.32;;;8.33;78.48
44453;BME280;30155;52.164;21.236;2023-04-16T00:42:19;100406.00;;;8.28;78.60
44453;BME280;30155;52.164;21.236;2023-04-16T00:47:11;100405.70;;;8.22;78.74
44453;BME280;30155;52.164;21.236;2023-04-16T00:52:04;100405.09;;;8.18;78.81
44453;BME280;30155;52.164;21.236;2023-04-16T00:56:57;100396.23;;;8.15;78.90
44453;BME280;30155;52.164;21.236;2023-04-16T01:01:50;100402.52;;;8.11;79.13
44453;BME280;30155;52.164;21.236;2023-04-16T01:06:43;100406.83;;;8.11;79.26
44453;BME280;30155;52.164;21.236;2023-04-16T01:11:37;100401.42;;;8.08;79.12
44453;BME280;30155;52.164;21.236;2023-04-16T01:16:31;100398.13;;;8.08;79.19
44453;BME280;30155;52.164;21.236;2023-04-16T01:21:23;100405.31;;;8.05;79.40
44453;BME280;30155;52.164;21.236;2023-04-16T01:26:17;100404.13;;;8.06;79.21
44453;BME280;30155;52.164;21.236;2023-04-16T01:31:10;100405.14;;;8.05;79.30
44453;BME280;30155;52.164;21.236;2023-04-16T01:36:16;100407.36;;;8.03;79.65
44453;BME280;30155;52.164;21.236;2023-04-16T01:41:09;100408.54;;;8.02;79.40
44453;BME280;30155;52.164;21.236;2023-04-16T01:46:11;100408.73;;;8.03;79.56
44453;BME280;30155;52.164;21.236;2023-04-16T01:51:04;100417.73;;;8.05;79.38
44453;BME280;30155;52.164;21.236;2023-04-16T01:55:57;100422.36;;;8.02;79.52
44453;BME280;30155;52.164;21.236;2023-04-16T02:00:49;100423.88;;;8.01;79.46
44453;BME280;30155;52.164;21.236;2023-04-16T02:05:42;100428.88;;;8.00;79.68
44453;BME280;30155;52.164;21.236;2023-04-16T02:10:35;100432.52;;;8.01;79.55
44453;BME280;30155;52.164;21.236;2023-04-16T02:15:28;100436.33;;;8.02;79.55
44453;BME280;30155;52.164;21.236;2023-04-16T02:20:21;100445.16;;;8.04;79.56
44453;BME280;30155;52.164;21.236;2023-04-16T02:25:17;100446.05;;;8.05;79.69
44453;BME280;30155;52.164;21.236;2023-04-16T02:30:11;100450.75;;;8.06;79.74
44453;BME280;30155;52.164;21.236;2023-04-16T02:35:04;100456.92;;;8.05;79.58
44453;BME280;30155;52.164;21.236;2023-04-16T02:39:57;100462.81;;;8.06;79.73
44453;BME280;30155;52.164;21.236;2023-04-16T02:44:50;100459.52;;;8.05;79.57
44453;BME280;30155;52.164;21.236;2023-04-16T02:49:43;100463.98;;;8.04;79.63
44453;BME280;30155;52.164;21.236;2023-04-16T02:54:36;100468.98;;;8.04;79.57
44453;BME280;30155;52.164;21.236;2023-04-16T02:59:28;100478.80;;;8.03;79.73
44453;BME280;30155;52.164;21.236;2023-04-16T03:04:21;100481.89;;;8.01;79.74
44453;BME280;30155;52.164;21.236;2023-04-16T03:09:14;100479.30;;;8.02;79.77
44453;BME280;30155;52.164;21.236;2023-04-16T03:14:07;100483.80;;;8.02;79.87
44453;BME280;30155;52.164;21.236;2023-04-16T03:19:00;100482.73;;;8.01;79.86
44453;BME280;30155;52.164;21.236;2023-04-16T03:23:53;100488.33;;;7.97;79.70
44453;BME280;30155;52.164;21.236;2023-04-16T03:28:46;100489.85;;;7.95;79.98
44453;BME280;30155;52.164;21.236;2023-04-16T03:33:39;100492.75;;;7.94;79.97
44453;BME280;30155;52.164;21.236;2023-04-16T03:38:33;100490.66;;;7.92;80.18
44453;BME280;30155;52.164;21.236;2023-04-16T03:43:26;100491.00;;;7.93;80.14
44453;BME280;30155;52.164;21.236;2023-04-16T03:48:19;100493.08;;;7.93;80.01
44453;BME280;30155;52.164;21.236;2023-04-16T03:53:12;100491.02;;;7.94;80.22
44453;BME280;30155;52.164;21.236;2023-04-16T03:58:05;100487.71;;;7.92;80.20
44453;BME280;30155;52.164;21.236;2023-04-16T04:02:58;100489.89;;;7.90;80.08
44453;BME280;30155;52.164;21.236;2023-04-16T04:07:52;100497.04;;;7.86;80.27
44453;BME280;30155;52.164;21.236;2023-04-16T04:12:45;100502.36;;;7.85;80.46
44453;BME280;30155;52.164;21.236;2023-04-16T04:17:37;100499.63;;;7.86;80.27
44453;BME280;30155;52.164;21.236;2023-04-16T04:22:30;100502.16;;;7.90;80.51
44453;BME280;30155;52.164;21.236;2023-04-16T04:27:23;100510.36;;;7.94;80.31
44453;BME280;30155;52.164;21.236;2023-04-16T04:32:16;100515.66;;;7.98;80.43
44453;BME280;30155;52.164;21.236;2023-04-16T04:37:11;100513.64;;;8.08;80.38
44453;BME280;30155;52.164;21.236;2023-04-16T04:42:03;100520.95;;;8.19;80.00
44453;BME280;30155;52.164;21.236;2023-04-16T04:46:56;100527.19;;;8.27;80.03
44453;BME280;30155;52.164;21.236;2023-04-16T04:51:49;100534.39;;;8.32;80.03
44453;BME280;30155;52.164;21.236;2023-04-16T04:56:44;100540.52;;;8.36;80.11
44453;BME280;30155;52.164;21.236;2023-04-16T05:01:37;100542.00;;;8.40;79.89
44453;BME280;30155;52.164;21.236;2023-04-16T05:06:30;100542.02;;;8.47;79.78
44453;BME280;30155;52.164;21.236;2023-04-16T05:11:23;100545.31;;;8.55;79.54
44453;BME280;30155;52.164;21.236;2023-04-16T05:16:16;100548.00;;;8.60;79.33
44453;BME280;30155;52.164;21.236;2023-04-16T05:21:08;100547.38;;;8.62;79.05
44453;BME280;30155;52.164;21.236;2023-04-16T05:26:01;100545.30;;;8.62;79.02
44453;BME280;30155;52.164;21.236;2023-04-16T05:30:54;100553.34;;;8.67;78.93
44453;BME280;30155;52.164;21.236;2023-04-16T05:35:47;100555.52;;;8.71;78.72
44453;BME280;30155;52.164;21.236;2023-04-16T05:40:40;100566.14;;;8.75;78.57
44453;BME280;30155;52.164;21.236;2023-04-16T05:45:32;100569.13;;;8.77;78.31
44453;BME280;30155;52.164;21.236;2023-04-16T05:50:30;100566.14;;;8.83;78.19
44453;BME280;30155;52.164;21.236;2023-04-16T05:55:22;100571.29;;;8.89;77.77
44453;BME280;30155;52.164;21.236;2023-04-16T06:00:15;100576.16;;;8.99;77.68
44453;BME280;30155;52.164;21.236;2023-04-16T06:05:08;100574.64;;;9.08;77.24
44453;BME280;30155;52.164;21.236;2023-04-16T06:10:01;100576.42;;;9.20;77.32
44453;BME280;30155;52.164;21.236;2023-04-16T06:14:54;100578.30;;;9.37;76.93
44453;BME280;30155;52.164;21.236;2023-04-16T06:19:46;100574.94;;;9.50;76.47
44453;BME280;30155;52.164;21.236;2023-04-16T06:24:39;100576.28;;;9.67;76.05
44453;BME280;30155;52.164;21.236;2023-04-16T06:29:32;100577.91;;;9.90;76.20
44453;BME280;30155;52.164;21.236;2023-04-16T06:34:32;100570.00;;;10.14;75.51
44453;BME280;30155;52.164;21.236;2023-04-16T06:39:24;100570.10;;;10.30;74.94
44453;BME280;30155;52.164;21.236;2023-04-16T06:44:17;100577.31;;;10.36;74.66
44453;BME280;30155;52.164;21.236;2023-04-16T06:49:10;100587.95;;;10.41;74.34
44453;BME280;30155;52.164;21.236;2023-04-16T06:54:03;100593.20;;;10.43;74.51
44453;BME280;30155;52.164;21.236;2023-04-16T06:58:56;100592.20;;;10.47;74.02
44453;BME280;30155;52.164;21.236;2023-04-16T07:03:51;100597.52;;;10.54;74.11
44453;BME280;30155;52.164;21.236;2023-04-16T07:08:44;100597.77;;;10.58;74.10
44453;BME280;30155;52.164;21.236;2023-04-16T07:13:37;100600.04;;;10.61;73.74
44453;BME280;30155;52.164;21.236;2023-04-16T07:18:30;100603.71;;;10.63;73.59
44453;BME280;30155;52.164;21.236;2023-04-16T07:23:23;100609.61;;;10.63;73.32
44453;BME280;30155;52.164;21.236;2023-04-16T07:28:15;100612.95;;;10.66;73.07
44453;BME280;30155;52.164;21.236;2023-04-16T07:33:08;100613.48;;;10.79;72.85
44453;BME280;30155;52.164;21.236;2023-04-16T07:38:01;100621.36;;;10.97;73.05
44453;BME280;30155;52.164;21.236;2023-04-16T07:42:54;100626.36;;;11.07;72.71
44453;BME280;30155;52.164;21.236;2023-04-16T07:47:47;100628.84;;;11.10;72.46
44453;BME280;30155;52.164;21.236;2023-04-16T07:52:39;100632.05;;;11.16;72.45
44453;BME280;30155;52.164;21.236;2023-04-16T07:57:34;100636.08;;;11.20;72.22
44453;BME280;30155;52.164;21.236;2023-04-16T08:02:27;100644.39;;;11.19;72.02
44453;BME280;30155;52.164;21.236;2023-04-16T08:07:20;100652.12;;;11.14;71.95
44453;BME280;30155;52.164;21.236;2023-04-16T08:12:13;100656.45;;;11.13;72.19
44453;BME280;30155;52.164;21.236;2023-04-16T08:17:06;100661.41;;;11.19;72.06
44453;BME280;30155;52.164;21.236;2023-04-16T08:21:59;100660.76;;;11.23;71.64
44453;BME280;30155;52.164;21.236;2023-04-16T08:26:52;100671.07;;;11.30;71.65
44453;BME280;30155;52.164;21.236;2023-04-16T08:31:51;100670.78;;;11.48;71.33
44453;BME280;30155;52.164;21.236;2023-04-16T08:36:44;100670.58;;;11.59;70.80
44453;BME280;30155;52.164;21.236;2023-04-16T08:41:37;100676.03;;;11.65;70.28
44453;BME280;30155;52.164;21.236;2023-04-16T08:46:30;100673.60;;;11.80;70.60
44453;BME280;30155;52.164;21.236;2023-04-16T08:51:25;100671.52;;;12.10;70.25
44453;BME280;30155;52.164;21.236;2023-04-16T08:56:24;100673.19;;;12.40;69.77
44453;BME280;30155;52.164;21.236;2023-04-16T09:01:17;100675.27;;;12.62;68.98
44453;BME280;30155;52.164;21.236;2023-04-16T09:06:19;100678.46;;;12.69;68.55
44453;BME280;30155;52.164;21.236;2023-04-16T09:11:51;100676.29;;;12.81;68.11
44453;BME280;30155;52.164;21.236;2023-04-16T09:16:45;100686.29;;;12.93;67.63
44453;BME280;30155;52.164;21.236;2023-04-16T09:21:38;100688.23;;;12.97;67.47
44453;BME280;30155;52.164;21.236;2023-04-16T09:26:32;100692.52;;;13.16;67.23
44453;BME280;30155;52.164;21.236;2023-04-16T09:31:25;100694.79;;;13.40;66.72
44453;BME280;30155;52.164;21.236;2023-04-16T09:36:21;100697.30;;;13.59;66.41
44453;BME280;30155;52.164;21.236;2023-04-16T09:41:14;100702.39;;;13.62;66.27
44453;BME280;30155;52.164;21.236;2023-04-16T09:46:09;100701.52;;;13.70;66.24
44453;BME280;30155;52.164;21.236;2023-04-16T09:51:04;100701.77;;;13.86;65.47
44453;BME280;30155;52.164;21.236;2023-04-16T10:01:09;100716.89;;;13.76;65.48
44453;BME280;30155;52.164;21.236;2023-04-16T10:10:58;100716.35;;;13.74;64.91
44453;BME280;30155;52.164;21.236;2023-04-16T10:15:51;100716.56;;;13.82;64.81
44453;BME280;30155;52.164;21.236;2023-04-16T10:20:43;100720.91;;;13.82;64.73
44453;BME280;30155;52.164;21.236;2023-04-16T10:25:37;100726.34;;;13.87;64.58
44453;BME280;30155;52.164;21.236;2023-04-16T10:30:30;100731.22;;;13.90;64.18
44453;BME280;30155;52.164;21.236;2023-04-16T10:35:24;100735.69;;;14.27;64.10
44453;BME280;30155;52.164;21.236;2023-04-16T10:40:23;100734.19;;;14.68;63.27
44453;BME280;30155;52.164;21.236;2023-04-16T10:45:17;100732.10;;;14.82;63.01
44453;BME280;30155;52.164;21.236;2023-04-16T10:50:16;100737.86;;;14.67;62.86
44453;BME280;30155;52.164;21.236;2023-04-16T10:55:14;100737.52;;;14.69;62.91
44453;BME280;30155;52.164;21.236;2023-04-16T11:00:20;100732.27;;;14.79;62.84
44453;BME280;30155;52.164;21.236;2023-04-16T11:05:13;100730.71;;;14.91;62.12
44453;BME280;30155;52.164;21.236;2023-04-16T11:10:06;100739.09;;;14.87;62.32
44453;BME280;30155;52.164;21.236;2023-04-16T11:15:05;100739.61;;;14.94;62.37
44453;BME280;30155;52.164;21.236;2023-04-16T11:19:58;100740.80;;;15.18;61.85
44453;BME280;30155;52.164;21.236;2023-04-16T11:24:54;100745.73;;;15.68;61.16
44453;BME280;30155;52.164;21.236;2023-04-16T11:30:00;100740.76;;;15.96;61.38
44453;BME280;30155;52.164;21.236;2023-04-16T11:34:54;100741.41;;;15.53;61.50
44453;BME280;30155;52.164;21.236;2023-04-16T11:39:48;100743.08;;;15.11;61.73
44453;BME280;30155;52.164;21.236;2023-04-16T11:44:41;100748.86;;;14.92;61.59
44453;BME280;30155;52.164;21.236;2023-04-16T11:49:35;100738.35;;;15.16;61.26
44453;BME280;30155;52.164;21.236;2023-04-16T11:54:28;100731.91;;;15.77;60.91
44453;BME280;30155;52.164;21.236;2023-04-16T11:59:25;100730.42;;;16.31;59.67
44453;BME280;30155;52.164;21.236;2023-04-16T12:04:19;100725.67;;;17.00;59.76
44453;BME280;30155;52.164;21.236;2023-04-16T12:09:22;100723.85;;;17.90;58.63
44453;BME280;30155;52.164;21.236;2023-04-16T12:14:15;100727.70;;;18.29;58.11
44453;BME280;30155;52.164;21.236;2023-04-16T12:19:10;100722.87;;;17.69;57.40
44453;BME280;30155;52.164;21.236;2023-04-16T12:24:04;100721.70;;;17.16;57.35
44453;BME280;30155;52.164;21.236;2023-04-16T12:29:03;100721.47;;;16.82;57.39
44453;BME280;30155;52.164;21.236;2023-04-16T12:34:05;100713.05;;;17.22;57.30
44453;BME280;30155;52.164;21.236;2023-04-16T12:38:58;100713.27;;;17.93;56.66
44453;BME280;30155;52.164;21.236;2023-04-16T12:43:51;100709.86;;;18.59;56.03
44453;BME280;30155;52.164;21.236;2023-04-16T12:48:44;100705.14;;;18.47;55.07
44453;BME280;30155;52.164;21.236;2023-04-16T12:53:36;100705.94;;;17.62;54.83
44453;BME280;30155;52.164;21.236;2023-04-16T12:58:29;100704.88;;;17.17;55.52
44453;BME280;30155;52.164;21.236;2023-04-16T13:03:22;100707.13;;;16.82;55.30
44453;BME280;30155;52.164;21.236;2023-04-16T13:08:15;100713.48;;;16.52;55.73
44453;BME280;30155;52.164;21.236;2023-04-16T13:13:08;100710.37;;;16.21;56.32
44453;BME280;30155;52.164;21.236;2023-04-16T13:18:00;100714.18;;;15.99;56.88
44453;BME280;30155;52.164;21.236;2023-04-16T13:22:53;100711.94;;;15.93;56.64
44453;BME280;30155;52.164;21.236;2023-04-16T13:27:46;100702.61;;;16.30;56.27
44453;BME280;30155;52.164;21.236;2023-04-16T13:32:39;100702.09;;;16.54;55.84
44453;BME280;30155;52.164;21.236;2023-04-16T13:37:32;100705.93;;;16.32;55.62
44453;BME280;30155;52.164;21.236;2023-04-16T13:42:24;100708.10;;;16.20;56.33
44453;BME280;30155;52.164;21.236;2023-04-16T13:47:18;100704.77;;;16.47;57.02
44453;BME280;30155;52.164;21.236;2023-04-16T13:52:11;100699.88;;;17.26;56.06
44453;BME280;30155;52.164;21.236;2023-04-16T13:57:05;100703.88;;;17.88;54.54
44453;BME280;30155;52.164;21.236;2023-04-16T14:01:57;100706.27;;;18.06;54.17
44453;BME280;30155;52.164;21.236;2023-04-16T14:06:50;100707.10;;;18.22;54.05
44453;BME280;30155;52.164;21.236;2023-04-16T14:11:43;100702.50;;;18.25;52.65
44453;BME280;30155;52.164;21.236;2023-04-16T14:16:36;100704.98;;;17.70;52.47
44453;BME280;30155;52.164;21.236;2023-04-16T14:21:29;100706.55;;;17.09;53.18
44453;BME280;30155;52.164;21.236;2023-04-16T14:26:22;100711.73;;;16.52;53.35
44453;BME280;30155;52.164;21.236;2023-04-16T14:31:15;100714.09;;;16.11;53.89
44453;BME280;30155;52.164;21.236;2023-04-16T14:36:10;100713.31;;;15.96;54.22
44453;BME280;30155;52.164;21.236;2023-04-16T14:41:03;100714.41;;;15.86;54.33
44453;BME280;30155;52.164;21.236;2023-04-16T14:45:55;100712.46;;;15.93;54.44
44453;BME280;30155;52.164;21.236;2023-04-16T14:50:49;100715.23;;;15.98;54.91
44453;BME280;30155;52.164;21.236;2023-04-16T14:55:41;100719.34;;;15.80;54.66
44453;BME280;30155;52.164;21.236;2023-04-16T15:00:34;100722.14;;;15.70;55.23
44453;BME280;30155;52.164;21.236;2023-04-16T15:05:28;100724.58;;;15.75;55.50
44453;BME280;30155;52.164;21.236;2023-04-16T15:10:21;100725.38;;;15.97;55.11
44453;BME280;30155;52.164;21.236;2023-04-16T15:15:14;100725.44;;;15.84;55.07
44453;BME280;30155;52.164;21.236;2023-04-16T15:20:08;100732.81;;;15.66;55.66
44453;BME280;30155;52.164;21.236;2023-04-16T15:25:00;100730.58;;;15.60;56.24
44453;BME280;30155;52.164;21.236;2023-04-16T15:29:53;100730.25;;;15.99;56.52
44453;BME280;30155;52.164;21.236;2023-04-16T15:34:46;100726.98;;;16.22;56.42
44453;BME280;30155;52.164;21.236;2023-04-16T15:39:39;100732.01;;;16.30;56.03
44453;BME280;30155;52.164;21.236;2023-04-16T15:44:32;100734.23;;;16.37;56.20
44453;BME280;30155;52.164;21.236;2023-04-16T15:49:27;100734.09;;;16.32;55.60
44453;BME280;30155;52.164;21.236;2023-04-16T15:54:21;100737.34;;;16.14;55.69
44453;BME280;30155;52.164;21.236;2023-04-16T15:59:15;100735.52;;;15.95;56.00
44453;BME280;30155;52.164;21.236;2023-04-16T16:04:08;100742.07;;;15.73;56.27
44453;BME280;30155;52.164;21.236;2023-04-16T16:09:01;100744.75;;;15.51;56.44
44453;BME280;30155;52.164;21.236;2023-04-16T16:13:54;100751.24;;;15.35;57.01
44453;BME280;30155;52.164;21.236;2023-04-16T16:18:46;100756.67;;;15.26;57.18
44453;BME280;30155;52.164;21.236;2023-04-16T16:23:40;100763.81;;;15.34;57.18
44453;BME280;30155;52.164;21.236;2023-04-16T16:28:32;100771.15;;;15.39;57.26
44453;BME280;30155;52.164;21.236;2023-04-16T16:33:28;100773.27;;;15.27;57.43
44453;BME280;30155;52.164;21.236;2023-04-16T16:38:21;100780.61;;;15.06;57.66
44453;BME280;30155;52.164;21.236;2023-04-16T16:43:14;100788.83;;;14.89;57.76
44453;BME280;30155;52.164;21.236;2023-04-16T16:48:07;100792.65;;;14.73;58.10
44453;BME280;30155;52.164;21.236;2023-04-16T16:53:00;100799.41;;;14.58;58.38
44453;BME280;30155;52.164;21.236;2023-04-16T16:57:53;100810.50;;;14.35;58.63
44453;BME280;30155;52.164;21.236;2023-04-16T17:02:46;100807.80;;;14.09;58.98
44453;BME280;30155;52.164;21.236;2023-04-16T17:07:41;100812.58;;;13.87;59.48
44453;BME280;30155;52.164;21.236;2023-04-16T17:12:34;100818.75;;;13.68;59.82
44453;BME280;30155;52.164;21.236;2023-04-16T17:17:27;100826.13;;;13.50;60.24
44453;BME280;30155;52.164;21.236;2023-04-16T17:22:20;100835.02;;;13.31;60.57
44453;BME280;30155;52.164;21.236;2023-04-16T17:27:13;100836.24;;;13.11;60.99
44453;BME280;30155;52.164;21.236;2023-04-16T17:32:06;100846.19;;;12.94;61.39
44453;BME280;30155;52.164;21.236;2023-04-16T17:36:58;100855.61;;;12.80;61.64
44453;BME280;30155;52.164;21.236;2023-04-16T17:41:51;100858.44;;;12.68;62.04
44453;BME280;30155;52.164;21.236;2023-04-16T17:46:44;100861.94;;;12.52;62.32
44453;BME280;30155;52.164;21.236;2023-04-16T17:51:37;100861.05;;;12.37;62.76
44453;BME280;30155;52.164;21.236;2023-04-16T17:56:31;100869.73;;;12.21;63.05
44453;BME280;30155;52.164;21.236;2023-04-16T18:01:24;100873.58;;;12.09;63.33
44453;BME280;30155;52.164;21.236;2023-04-16T18:06:17;100872.04;;;11.99;63.60
44453;BME280;30155;52.164;21.236;2023-04-16T18:11:11;100878.80;;;11.87;63.93
44453;BME280;30155;52.164;21.236;2023-04-16T18:16:03;100884.89;;;11.75;64.09
44453;BME280;30155;52.164;21.236;2023-04-16T18:20:58;100890.29;;;11.65;64.37
44453;BME280;30155;52.164;21.236;2023-04-16T18:25:51;100891.52;;;11.55;64.67
44453;BME280;30155;52.164;21.236;2023-04-16T18:30:44;100895.70;;;11.46;64.83
44453;BME280;30155;52.164;21.236;2023-04-16T18:35:38;100897.65;;;11.37;65.13
44453;BME280;30155;52.164;21.236;2023-04-16T18:40:35;100896.23;;;11.25;65.28
44453;BME280;30155;52.164;21.236;2023-04-16T18:45:28;100900.45;;;11.19;65.63
44453;BME280;30155;52.164;21.236;2023-04-16T18:50:21;100906.27;;;11.14;65.75
44453;BME280;30155;52.164;21.236;2023-04-16T18:55:14;100907.45;;;11.12;66.00
44453;BME280;30155;52.164;21.236;2023-04-16T19:00:07;100906.91;;;11.10;66.08
44453;BME280;30155;52.164;21.236;2023-04-16T19:05:03;100907.27;;;11.11;66.12
44453;BME280;30155;52.164;21.236;2023-04-16T19:09:56;100910.89;;;11.10;66.28
44453;BME280;30155;52.164;21.236;2023-04-16T19:14:50;100912.27;;;11.10;66.25
44453;BME280;30155;52.164;21.236;2023-04-16T19:19:43;100913.13;;;11.09;66.40
44453;BME280;30155;52.164;21.236;2023-04-16T19:24:36;100915.36;;;11.07;66.50
44453;BME280;30155;52.164;21.236;2023-04-16T19:29:33;100917.92;;;11.05;66.69
44453;BME280;30155;52.164;21.236;2023-04-16T19:34:26;100920.31;;;11.03;66.75
44453;BME280;30155;52.164;21.236;2023-04-16T19:39:19;100921.09;;;10.99;66.82
44453;BME280;30155;52.164;21.236;2023-04-16T19:44:11;100918.93;;;10.94;66.98
44453;BME280;30155;52.164;21.236;2023-04-16T19:49:04;100919.00;;;10.89;67.06
44453;BME280;30155;52.164;21.236;2023-04-16T19:53:57;100917.16;;;10.83;67.15
44453;BME280;30155;52.164;21.236;2023-04-16T19:58:50;100917.39;;;10.77;67.44
44453;BME280;30155;52.164;21.236;2023-04-16T20:03:42;100917.97;;;10.71;67.54
44453;BME280;30155;52.164;21.236;2023-04-16T20:08:36;100920.64;;;10.65;67.73
44453;BME280;30155;52.164;21.236;2023-04-16T20:13:28;100917.06;;;10.60;67.76
44453;BME280;30155;52.164;21.236;2023-04-16T20:18:21;100922.84;;;10.55;68.11
44453;BME280;30155;52.164;21.236;2023-04-16T20:23:16;100920.31;;;10.49;68.35
44453;BME280;30155;52.164;21.236;2023-04-16T20:28:09;100917.58;;;10.43;68.44
44453;BME280;30155;52.164;21.236;2023-04-16T20:33:01;100919.21;;;10.38;68.54
44453;BME280;30155;52.164;21.236;2023-04-16T20:37:54;100919.31;;;10.35;68.83
44453;BME280;30155;52.164;21.236;2023-04-16T20:42:47;100921.25;;;10.30;68.92
44453;BME280;30155;52.164;21.236;2023-04-16T20:47:42;100917.80;;;10.22;69.16
44453;BME280;30155;52.164;21.236;2023-04-16T20:52:35;100915.44;;;10.16;69.41
44453;BME280;30155;52.164;21.236;2023-04-16T20:57:28;100917.05;;;10.11;69.51
44453;BME280;30155;52.164;21.236;2023-04-16T21:02:22;100914.50;;;10.05;69.72
44453;BME280;30155;52.164;21.236;2023-04-16T21:07:15;100917.46;;;9.99;69.92
44453;BME280;30155;52.164;21.236;2023-04-16T21:12:08;100918.33;;;9.91;70.07
44453;BME280;30155;52.164;21.236;2023-04-16T21:17:01;100915.62;;;9.86;70.33
44453;BME280;30155;52.164;21.236;2023-04-16T21:21:54;100922.96;;;9.82;70.65
44453;BME280;30155;52.164;21.236;2023-04-16T21:26:47;100929.67;;;9.80;70.88
44453;BME280;30155;52.164;21.236;2023-04-16T21:31:39;100925.64;;;9.78;70.97
44453;BME280;30155;52.164;21.236;2023-04-16T21:36:32;100927.45;;;9.73;71.15
44453;BME280;30155;52.164;21.236;2023-04-16T21:41:25;100926.59;;;9.67;71.39
44453;BME280;30155;52.164;21.236;2023-04-16T21:46:18;100932.42;;;9.58;71.43
44453;BME280;30155;52.164;21.236;2023-04-16T21:51:11;100930.51;;;9.50;71.85
44453;BME280;30155;52.164;21.236;2023-04-16T21:56:04;100931.20;;;9.43;72.01
44453;BME280;30155;52.164;21.236;2023-04-16T22:00:57;100932.02;;;9.35;71.98
44453;BME280;30155;52.164;21.236;2023-04-16T22:05:57;100934.41;;;9.26;72.24
44453;BME280;30155;52.164;21.236;2023-04-16T22:10:55;100940.33;;;9.14;72.00
44453;BME280;30155;52.164;21.236;2023-04-16T22:15:47;100937.70;;;9.06;72.55
44453;BME280;30155;52.164;21.236;2023-04-16T22:20:41;100943.84;;;9.03;72.90
44453;BME280;30155;52.164;21.236;2023-04-16T22:25:34;100942.42;;;9.02;73.06
44453;BME280;30155;52.164;21.236;2023-04-16T22:30:26;100940.95;;;9.05;73.37
44453;BME280;30155;52.164;21.236;2023-04-16T22:35:19;100940.06;;;9.11;73.39
44453;BME280;30155;52.164;21.236;2023-04-16T22:40:12;100939.79;;;9.13;73.47
44453;BME280;30155;52.164;21.236;2023-04-16T22:45:06;100941.26;;;9.17;73.67
44453;BME280;30155;52.164;21.236;2023-04-16T22:49:59;100938.91;;;9.20;73.88
44453;BME280;30155;52.164;21.236;2023-04-16T22:54:52;100939.62;;;9.21;73.98
44453;BME280;30155;52.164;21.236;2023-04-16T22:59:45;100931.52;;;9.22;74.03
44453;BME280;30155;52.164;21.236;2023-04-16T23:04:38;100930.84;;;9.23;74.01
44453;BME280;30155;52.164;21.236;2023-04-16T23:09:30;100930.86;;;9.23;74.16
44453;BME280;30155;52.164;21.236;2023-04-16T23:14:24;100923.92;;;9.22;74.24
44453;BME280;30155;52.164;21.236;2023-04-16T23:19:17;100926.66;;;9.21;74.32
44453;BME280;30155;52.164;21.236;2023-04-16T23:24:10;100926.77;;;9.19;74.42
44453;BME280;30155;52.164;21.236;2023-04-16T23:29:03;100925.13;;;9.15;74.41
44453;BME280;30155;52.164;21.236;2023-04-16T23:33:55;100923.48;;;9.11;74.58
44453;BME280;30155;52.164;21.236;2023-04-16T23:38:48;100919.63;;;9.09;74.87
44453;BME280;30155;52.164;21.236;2023-04-16T23:43:41;100917.20;;;9.09;74.75
44453;BME280;30155;52.164;21.236;2023-04-16T23:48:34;100916.76;;;9.06;74.73
44453;BME280;30155;52.164;21.236;2023-04-16T23:53:26;100911.08;;;9.00;74.87
44453;BME280;30155;52.164;21.236;2023-04-16T23:58:19;100911.37;;;8.98;75.18
